Inside Trail Racing

Santa Cruz Trail Run

Age Group Results

August 04, 2012


Thanks for running with Inside Trail! Inside Trail Racing


Men: 0-29 30-39 40-49 50-59 60-99
Women: 0-29 30-39 40-49 50-59 60-99

50K

Female 30 to 39

Place Name City Bib No Age Overall Total Time
1 Alyshia Drake Ione CA 380 38 20 7:36:21.8
2 Abbie Beane Monterey CA 350 30 25 8:14:20.1
3 Emily Yu San Francisco CA 379 34 27 8:40:19.1
4 Minel Diaz Redwood City CA 353 37 28 8:41:32.1
Top

Female 40 to 49

Place Name City Bib No Age Overall Total Time
1 Holly Mortimer Boise ID 364 43 19 7:34:05.0
2 Joanne McCluhan CLAYTON CA 362 43 22 7:41:18.9
Top

Male 30 to 39

Place Name City Bib No Age Overall Total Time
1 Christopher Wehan Santa Cruz CA 378 30 1 4:13:34.0
2 Karl Schnaitter Mountain View CA 370 30 2 5:06:30.6
3 Chris Eide Palo Alto CA 355 36 4 5:14:17.5
4 Eric Schranz SACRAMENTO CA 371 37 6 5:36:22.4
5 rolly delfin freedom CA 352 30 9 6:15:10.6
6 Ryan Sullivan Monterey CA 373 32 26 8:14:22.6
Top

Male 40 to 49

Place Name City Bib No Age Overall Total Time
1 Mark Tanaka Hayward CA 382 45 3 5:12:50.5
2 Andy Roberts Tallahassee FL 368 45 7 5:43:10.4
3 Kevin Thayer Salinas CA 376 46 8 6:06:32.7
4 Gary Lindberg El Granada CA 359 43 10 6:22:18.4
5 Daniel Roed Concord CA 369 44 11 6:26:35.7
6 Kirk Hammond Templeton CA 356 48 13 6:51:27.7
7 Rob Mann Prunedale CA 360 40 14 6:53:08.7
8 Peter Hudec Brooklyn NY 358 42 15 7:06:10.6
9 Peter Mingoa San Francisco CA 363 42 21 7:36:43.8
10 Dan Reisner San Ramon CA 367 40 24 7:58:03.5
Top

Male 50 to 59

Place Name City Bib No Age Overall Total Time
1 Glenn Ohler Atascadero CA 366 50 5 5:25:09.9
2 John Mark Santa Cruz CA 361 59 12 6:28:13.4
3 Sam Hsu Fremont CA 357 51 16 7:06:16.1
4 Gary Dudney Salinas CA 354 59 17 7:14:09.0
5 Dwight Brown Los Altos CA 351 51 18 7:23:49.8
6 Michael Tarbet Felton CA 374 59 23 7:49:53.4